Time;durP1;ratioP1;P1;durP2;ratioP2;P2;SDS_P1;SDS_P2;PMS_P1;PMS_P2;Temp;Humidity;BMP_temperature;BMP_pressure;BME280_temperature;BME280_humidity;BME280_pressure;Samples;Min_cycle;Max_cycle;Signal;HPM_P1;HPM_P2
2021/08/03 00:02:09;;;;;;;1.88;0.05;;;12.20;99.90;;;;;;5094888;28;20056;-81
2021/08/03 00:04:41;;;;;;;0.30;0.00;;;12.30;99.90;;;;;;5076390;28;20428;-81
2021/08/03 00:07:09;;;;;;;0.45;0.00;;;12.30;99.90;;;;;;5076838;28;20024;-81
2021/08/03 00:09:36;;;;;;;2.20;0.47;;;12.30;99.90;;;;;;5094929;28;20531;-80
2021/08/03 00:12:02;;;;;;;0.38;0.20;;;12.30;99.90;;;;;;5094561;28;20022;-79
2021/08/03 00:14:29;;;;;;;0.98;0.00;;;12.30;99.90;;;;;;5094864;28;20016;-79
2021/08/03 00:16:56;;;;;;;0.88;0.20;;;12.30;99.90;;;;;;5094907;28;20102;-79
2021/08/03 00:19:26;;;;;;;0.35;0.00;;;12.30;99.90;;;;;;5076594;28;20454;-79
2021/08/03 00:21:53;;;;;;;0.55;0.00;;;12.20;99.90;;;;;;5075652;28;20016;-77
2021/08/03 00:24:23;;;;;;;1.30;0.20;;;12.20;99.90;;;;;;5075375;28;20038;-77
2021/08/03 00:26:50;;;;;;;1.10;0.00;;;12.20;99.90;;;;;;5093784;28;20097;-78
2021/08/03 00:29:16;;;;;;;1.27;0.00;;;12.10;99.90;;;;;;5093713;28;20028;-78
2021/08/03 00:31:42;;;;;;;1.70;0.20;;;12.10;99.90;;;;;;5094277;28;20024;-81
2021/08/03 00:34:07;;;;;;;2.40;0.10;;;12.10;99.90;;;;;;5075555;28;20027;-81
2021/08/03 00:36:33;;;;;;;2.10;0.00;;;12.10;99.90;;;;;;5075538;28;20023;-79
2021/08/03 00:38:59;;;;;;;0.28;0.00;;;12.10;99.90;;;;;;5093622;28;20452;-81
2021/08/03 00:41:29;;;;;;;2.92;0.00;;;12.10;99.90;;;;;;5074711;28;20062;-77
2021/08/03 00:43:56;;;;;;;1.25;0.10;;;12.10;99.90;;;;;;5074685;28;20024;-77
2021/08/03 00:46:21;;;;;;;3.03;0.00;;;12.10;99.90;;;;;;5093308;28;20431;-77
2021/08/03 00:48:47;;;;;;;0.50;0.00;;;12.10;99.90;;;;;;5074528;28;20056;-77
2021/08/03 00:51:13;;;;;;;1.02;0.00;;;12.10;99.90;;;;;;5074279;28;20493;-77
2021/08/03 00:53:42;;;;;;;0.68;0.10;;;12.10;99.90;;;;;;5093121;28;20079;-77
2021/08/03 00:56:08;;;;;;;1.17;0.45;;;12.10;99.90;;;;;;5074466;28;20013;-78
2021/08/03 00:58:34;;;;;;;0.10;0.00;;;12.10;99.90;;;;;;5074928;28;20035;-77
2021/08/03 01:00:59;;;;;;;0.90;0.00;;;12.10;99.90;;;;;;5093156;28;20101;-77
2021/08/03 01:03:25;;;;;;;1.30;0.00;;;12.10;99.90;;;;;;5093110;28;20031;-77
2021/08/03 01:06:14;;;;;;;0.47;0.00;;;12.20;99.90;;;;;;5075082;28;20134;-77
2021/08/03 01:09:15;;;;;;;0.20;0.00;;;12.20;99.90;;;;;;5082322;28;20046;-80
2021/08/03 01:11:49;;;;;;;5.38;0.05;;;12.20;99.90;;;;;;5075133;28;20032;-78
2021/08/03 01:14:18;;;;;;;2.22;0.10;;;12.20;99.90;;;;;;5093905;28;20027;-79
2021/08/03 01:17:13;;;;;;;0.00;0.00;;;12.10;99.90;;;;;;5092649;28;20027;-77
2021/08/03 01:19:59;;;;;;;2.22;0.00;;;12.10;99.90;;;;;;5074323;28;20016;-77
2021/08/03 01:22:50;;;;;;;1.45;0.30;;;12.00;99.90;;;;;;5094149;28;20481;-79
2021/08/03 01:25:45;;;;;;;1.73;0.30;;;12.00;99.90;;;;;;5074951;28;20028;-77
2021/08/03 01:28:38;;;;;;;1.30;0.00;;;12.00;99.90;;;;;;5056762;28;1047358;-77
2021/08/03 01:31:18;;;;;;;0.20;0.00;;;12.00;99.90;;;;;;5052856;28;20051;-77
2021/08/03 01:33:48;;;;;;;1.08;0.10;;;12.00;99.90;;;;;;5093445;28;20020;-77
2021/08/03 01:36:15;;;;;;;1.02;0.10;;;12.00;99.90;;;;;;5095369;28;20389;-77
2021/08/03 01:38:42;;;;;;;0.80;0.10;;;12.00;99.90;;;;;;5097351;28;20093;-79
2021/08/03 01:41:12;;;;;;;0.85;0.00;;;12.00;99.90;;;;;;5096859;28;20054;-77
2021/08/03 01:43:40;;;;;;;2.50;0.00;;;12.00;99.90;;;;;;5079332;28;20013;-79
2021/08/03 01:46:07;;;;;;;0.15;0.00;;;12.10;99.90;;;;;;5079249;28;20081;-78
2021/08/03 01:48:34;;;;;;;0.15;0.00;;;12.10;99.90;;;;;;5079317;28;20020;-78
2021/08/03 01:51:00;;;;;;;0.98;0.00;;;12.20;99.90;;;;;;5097407;28;20054;-78
2021/08/03 01:53:27;;;;;;;0.82;0.00;;;12.00;99.90;;;;;;5079009;28;20024;-78
2021/08/03 01:55:55;;;;;;;0.22;0.00;;;12.00;99.90;;;;;;5079222;28;20016;-80
2021/08/03 01:58:22;;;;;;;2.73;0.00;;;11.90;99.90;;;;;;5079111;28;20389;-81
2021/08/03 02:00:51;;;;;;;1.38;0.00;;;11.90;99.90;;;;;;5079274;28;20024;-81
2021/08/03 02:03:19;;;;;;;1.85;0.00;;;11.90;99.90;;;;;;5097104;28;20017;-76
2021/08/03 02:05:46;;;;;;;5.93;0.68;;;11.90;99.90;;;;;;5096389;28;20093;-76
2021/08/03 02:08:12;;;;;;;2.28;0.00;;;11.80;99.90;;;;;;5078300;28;20046;-77
2021/08/03 02:10:39;;;;;;;1.65;0.22;;;11.80;99.90;;;;;;5078609;28;20085;-76
2021/08/03 02:13:07;;;;;;;0.80;0.40;;;11.70;99.90;;;;;;5096942;28;20025;-79
2021/08/03 02:15:33;;;;;;;2.33;0.00;;;11.70;99.90;;;;;;5096997;28;20030;-78
2021/08/03 02:17:58;;;;;;;0.52;0.30;;;11.60;99.90;;;;;;5078635;28;20107;-79
2021/08/03 02:20:24;;;;;;;3.30;0.00;;;11.60;99.90;;;;;;5096964;28;20031;-79
2021/08/03 02:22:50;;;;;;;3.42;0.20;;;11.60;99.90;;;;;;5096737;28;20082;-79
2021/08/03 02:25:16;;;;;;;0.22;0.00;;;11.60;99.90;;;;;;5096547;28;20028;-79
2021/08/03 02:27:41;;;;;;;1.70;0.10;;;11.50;99.90;;;;;;5078399;28;20032;-81
2021/08/03 02:30:09;;;;;;;0.15;0.00;;;11.50;99.90;;;;;;5095914;28;20023;-76
2021/08/03 02:32:44;;;;;;;0.30;0.00;;;11.50;99.90;;;;;;5095675;28;20020;-76
2021/08/03 02:35:16;;;;;;;1.58;0.00;;;11.50;99.90;;;;;;5095828;28;20481;-76
2021/08/03 02:37:48;;;;;;;1.23;0.00;;;11.40;99.90;;;;;;5077672;28;20023;-76
2021/08/03 02:40:14;;;;;;;1.02;0.00;;;11.40;99.90;;;;;;5078058;28;20020;-79
2021/08/03 02:42:40;;;;;;;1.17;0.00;;;11.40;99.90;;;;;;5097025;28;20027;-79
2021/08/03 02:45:06;;;;;;;0.85;0.40;;;11.40;99.90;;;;;;5096617;28;20462;-77
2021/08/03 02:47:45;;;;;;;1.00;0.03;;;11.40;99.90;;;;;;5095799;28;20024;-79
2021/08/03 02:50:11;;;;;;;1.30;0.00;;;11.40;99.90;;;;;;5078584;28;20434;-79
2021/08/03 02:52:43;;;;;;;0.43;0.00;;;11.40;99.90;;;;;;5078133;28;20051;-77
2021/08/03 02:55:46;;;;;;;0.32;0.00;;;11.50;99.90;;;;;;5095683;28;20020;-76
2021/08/03 02:58:19;;;;;;;0.80;0.00;;;11.50;99.90;;;;;;5095678;28;20390;-76
2021/08/03 03:00:47;;;;;;;0.70;0.00;;;11.50;99.90;;;;;;5095234;28;20023;-76
2021/08/03 03:03:17;;;;;;;0.43;0.20;;;11.60;99.90;;;;;;5095588;28;20020;-79
2021/08/03 03:05:48;;;;;;;2.67;0.15;;;11.70;99.90;;;;;;5095569;28;20263;-79
2021/08/03 03:08:17;;;;;;;3.72;0.40;;;11.70;99.90;;;;;;5095903;28;20024;-79
2021/08/03 03:10:44;;;;;;;;;;;11.70;99.90;;;;;;5078118;28;20426;-79
2021/08/03 03:13:27;;;;;;;0.40;0.00;;;11.80;99.90;;;;;;5077699;28;19907;-79
2021/08/03 03:15:53;;;;;;;0.25;0.10;;;11.80;99.90;;;;;;5095736;28;20028;-79
2021/08/03 03:18:20;;;;;;;0.47;0.15;;;11.80;99.90;;;;;;5096437;28;20020;-79
2021/08/03 03:20:47;;;;;;;2.08;0.20;;;11.90;99.90;;;;;;5077072;28;20016;-77
2021/08/03 03:23:16;;;;;;;3.28;0.10;;;11.90;99.90;;;;;;5077214;28;20047;-78
2021/08/03 03:25:44;;;;;;;1.33;0.30;;;12.00;99.90;;;;;;5095680;28;20358;-76
2021/08/03 03:28:12;;;;;;;1.80;0.32;;;12.00;99.90;;;;;;5076519;28;20485;-76
2021/08/03 03:30:38;;;;;;;0.47;0.00;;;12.00;99.90;;;;;;5094850;28;20020;-79
2021/08/03 03:33:05;;;;;;;1.60;0.03;;;12.10;99.90;;;;;;5095365;28;20341;-79
2021/08/03 03:35:33;;;;;;;1.50;0.10;;;12.10;99.90;;;;;;5096045;28;20127;-77
2021/08/03 03:37:59;;;;;;;5.10;0.10;;;12.20;99.90;;;;;;5077362;28;20020;-77
2021/08/03 03:40:26;;;;;;;0.77;0.00;;;12.20;99.90;;;;;;5076730;28;20028;-77
2021/08/03 03:42:55;;;;;;;0.93;0.10;;;12.20;99.90;;;;;;5094934;28;20023;-77
2021/08/03 03:45:21;;;;;;;0.20;0.00;;;12.30;99.90;;;;;;5076752;28;20024;-79
2021/08/03 03:47:58;;;;;;;0.28;0.10;;;12.30;99.90;;;;;;5095756;28;20032;-79
2021/08/03 03:50:30;;;;;;;1.23;0.05;;;12.40;99.90;;;;;;5095646;28;20020;-79
2021/08/03 03:53:23;;;;;;;1.10;0.20;;;12.40;99.90;;;;;;5095219;28;20020;-79
2021/08/03 03:55:55;;;;;;;1.13;0.08;;;12.40;99.90;;;;;;5091868;28;20043;-77
2021/08/03 03:58:22;;;;;;;0.35;0.10;;;12.50;99.90;;;;;;5076537;28;20027;-79
2021/08/03 04:00:48;;;;;;;0.88;0.03;;;12.50;99.90;;;;;;5095178;28;20028;-79
2021/08/03 04:03:19;;;;;;;2.10;0.00;;;12.60;99.90;;;;;;5095909;28;20024;-79
2021/08/03 04:05:47;;;;;;;1.90;0.10;;;12.60;99.90;;;;;;5095390;28;20081;-79
2021/08/03 04:08:13;;;;;;;3.92;0.28;;;13.60;99.90;;;;;;5095268;28;20027;-79
2021/08/03 04:10:39;;;;;;;0.52;0.10;;;12.70;99.90;;;;;;5077029;28;20050;-79
2021/08/03 04:13:05;;;;;;;0.90;0.20;;;12.70;99.90;;;;;;5077527;28;20016;-80
2021/08/03 04:15:34;;;;;;;3.15;0.28;;;12.70;99.90;;;;;;5095347;28;20016;-80
2021/08/03 04:18:00;;;;;;;3.33;0.00;;;12.80;99.90;;;;;;5077046;28;20016;-80
2021/08/03 04:20:26;;;;;;;1.88;0.10;;;12.80;99.90;;;;;;5094716;28;20107;-80
2021/08/03 04:22:52;;;;;;;0.28;0.10;;;12.80;99.90;;;;;;5076809;28;20096;-80
2021/08/03 04:25:17;;;;;;;1.25;0.10;;;12.80;99.90;;;;;;5076434;28;20024;-79
2021/08/03 04:27:43;;;;;;;3.72;0.30;;;12.90;99.90;;;;;;5076051;28;20030;-77
2021/08/03 04:30:12;;;;;;;0.60;0.38;;;12.90;99.90;;;;;;5093932;28;20495;-76
2021/08/03 04:32:38;;;;;;;1.80;0.00;;;12.90;99.90;;;;;;5094437;28;20055;-76
2021/08/03 04:35:04;;;;;;;2.65;0.20;;;12.90;99.90;;;;;;5094421;28;20536;-78
2021/08/03 04:37:41;;;;;;;2.25;0.20;;;12.90;99.90;;;;;;5076132;28;20024;-78
2021/08/03 04:40:08;;;;;;;2.70;0.10;;;12.90;99.90;;;;;;5075744;28;20389;-78
2021/08/03 04:42:34;;;;;;;1.77;0.20;;;12.90;99.90;;;;;;5094711;28;20115;-78
2021/08/03 04:45:00;;;;;;;1.70;0.10;;;13.00;99.90;;;;;;5094054;28;20043;-79
2021/08/03 04:47:26;;;;;;;1.23;0.22;;;13.00;99.90;;;;;;5095305;28;20016;-79
2021/08/03 04:49:51;;;;;;;0.98;0.00;;;13.00;99.90;;;;;;5076710;28;20059;-79
2021/08/03 04:52:17;;;;;;;0.68;0.22;;;13.10;99.90;;;;;;5076506;28;20076;-79
2021/08/03 04:54:42;;;;;;;1.63;0.15;;;13.10;99.90;;;;;;5094541;28;20020;-79
2021/08/03 04:57:08;;;;;;;2.40;0.20;;;13.10;99.90;;;;;;5076488;28;20026;-79
2021/08/03 04:59:33;;;;;;;1.08;0.20;;;13.20;99.90;;;;;;5076203;28;20021;-79
2021/08/03 05:02:01;;;;;;;0.38;0.10;;;13.20;99.90;;;;;;5076103;28;20381;-80
2021/08/03 05:04:29;;;;;;;0.45;0.13;;;13.20;99.90;;;;;;5075966;28;20494;-77
2021/08/03 05:06:55;;;;;;;2.78;0.10;;;13.20;99.90;;;;;;5093683;28;20016;-77
2021/08/03 05:09:21;;;;;;;5.07;0.15;;;13.10;99.90;;;;;;5076518;28;20023;-76
2021/08/03 05:11:46;;;;;;;1.17;0.30;;;13.20;99.90;;;;;;5097363;28;20024;-77
2021/08/03 05:14:12;;;;;;;1.10;0.08;;;13.20;99.90;;;;;;5097625;28;20020;-77
2021/08/03 05:16:37;;;;;;;0.63;0.20;;;13.20;99.90;;;;;;5098224;28;20078;-78
2021/08/03 05:19:03;;;;;;;0.60;0.10;;;13.20;99.90;;;;;;5097572;28;20028;-78
2021/08/03 05:21:28;;;;;;;1.23;0.10;;;13.30;99.90;;;;;;5097800;28;20047;-79
2021/08/03 05:23:54;;;;;;;1.30;0.00;;;13.40;99.90;;;;;;5097603;28;20477;-77
2021/08/03 05:26:20;;;;;;;3.38;0.17;;;13.50;99.90;;;;;;5097162;28;20089;-76
2021/08/03 05:28:45;;;;;;;0.45;0.10;;;13.50;99.90;;;;;;5079286;28;20043;-77
2021/08/03 05:31:13;;;;;;;1.17;0.10;;;13.70;99.90;;;;;;5097605;28;20028;-79
2021/08/03 05:33:38;;;;;;;0.52;0.10;;;13.80;99.90;;;;;;5097307;28;20020;-77
2021/08/03 05:36:04;;;;;;;1.48;0.20;;;13.90;99.90;;;;;;5096865;28;20027;-77
2021/08/03 05:38:30;;;;;;;0.40;0.10;;;14.00;99.90;;;;;;5097854;28;20119;-76
2021/08/03 05:40:55;;;;;;;0.73;0.10;;;14.10;99.90;;;;;;5078977;28;20028;-79
2021/08/03 05:43:21;;;;;;;1.42;0.22;;;14.30;99.90;;;;;;5097269;28;20028;-79
2021/08/03 05:45:46;;;;;;;1.17;0.28;;;14.40;99.90;;;;;;5080432;28;20035;-80
2021/08/03 05:48:13;;;;;;;1.02;0.32;;;14.50;99.90;;;;;;5097378;28;20024;-80
2021/08/03 05:50:39;;;;;;;1.15;0.30;;;14.70;99.90;;;;;;5097142;28;20047;-80
2021/08/03 05:53:04;;;;;;;2.10;0.03;;;14.80;99.90;;;;;;5079176;28;20015;-80
2021/08/03 05:55:30;;;;;;;0.40;0.00;;;14.90;99.90;;;;;;5098114;28;20016;-80
2021/08/03 05:57:55;;;;;;;1.52;0.15;;;14.90;99.90;;;;;;5079886;28;20023;-80
2021/08/03 06:00:21;;;;;;;1.17;0.00;;;15.00;99.90;;;;;;5079833;28;20028;-80
2021/08/03 06:02:46;;;;;;;1.65;0.10;;;16.20;99.90;;;;;;5079800;28;20028;-80
2021/08/03 06:05:12;;;;;;;0.55;0.00;;;15.00;99.90;;;;;;5079540;28;20024;-80
2021/08/03 06:07:44;;;;;;;2.30;0.00;;;15.00;99.90;;;;;;5079478;28;20031;-81
2021/08/03 06:10:15;;;;;;;0.57;0.00;;;15.00;99.90;;;;;;5078847;28;20020;-79
2021/08/03 06:12:46;;;;;;;0.20;0.00;;;14.90;99.90;;;;;;5078555;28;20032;-79
2021/08/03 06:15:12;;;;;;;1.25;0.20;;;14.90;99.90;;;;;;5096621;28;20016;-79
2021/08/03 06:17:41;;;;;;;0.43;0.10;;;15.00;99.90;;;;;;5078487;28;20024;-79
2021/08/03 06:20:08;;;;;;;0.50;0.00;;;15.00;99.90;;;;;;5078477;28;20110;-79
2021/08/03 06:22:38;;;;;;;0.50;0.10;;;14.90;99.90;;;;;;5077736;28;20028;-80
2021/08/03 06:25:12;;;;;;;0.40;0.00;;;14.90;99.90;;;;;;5078596;28;20020;-80
2021/08/03 06:27:37;;;;;;;0.73;0.00;;;14.90;99.90;;;;;;5096528;28;20040;-80
2021/08/03 06:30:06;;;;;;;0.50;0.10;;;14.90;99.90;;;;;;5078264;28;20089;-79
2021/08/03 06:32:33;;;;;;;3.72;0.00;;;14.90;99.90;;;;;;5078347;28;20069;-79
2021/08/03 06:34:58;;;;;;;0.68;0.00;;;14.90;99.90;;;;;;5096543;28;20027;-77
2021/08/03 06:37:24;;;;;;;0.60;0.00;;;14.90;99.90;;;;;;5078266;28;20020;-79
2021/08/03 06:39:49;;;;;;;0.52;0.00;;;14.90;99.90;;;;;;5077757;28;20184;-77
2021/08/03 06:42:30;;;;;;;0.10;0.00;;;14.90;99.90;;;;;;5077775;28;20500;-78
2021/08/03 06:45:07;;;;;;;0.05;0.00;;;15.00;99.90;;;;;;5096623;28;20024;-79
2021/08/03 06:47:48;;;;;;;0.20;0.00;;;15.00;99.90;;;;;;5096168;28;20027;-79
2021/08/03 06:50:16;;;;;;;8.98;0.70;;;15.10;99.90;;;;;;5096090;28;20107;-80
2021/08/03 06:52:42;;;;;;;3.22;0.00;;;15.10;99.90;;;;;;5077951;28;20024;-78
2021/08/03 06:55:08;;;;;;;1.45;0.00;;;15.20;99.90;;;;;;5095809;28;20425;-77
2021/08/03 06:57:35;;;;;;;0.25;0.00;;;15.20;99.90;;;;;;5077290;28;20448;-76
2021/08/03 07:00:08;;;;;;;1.05;0.00;;;15.40;99.90;;;;;;5095695;28;20028;-77
2021/08/03 07:02:42;;;;;;;2.20;0.00;;;15.50;99.90;;;;;;5095415;28;20062;-76
2021/08/03 07:05:17;;;;;;;1.73;0.08;;;15.60;99.90;;;;;;5077243;28;20024;-76
2021/08/03 07:07:44;;;;;;;0.85;0.00;;;15.70;99.90;;;;;;5095817;28;20482;-76
2021/08/03 07:10:10;;;;;;;1.48;0.15;;;15.80;99.90;;;;;;5095081;28;20043;-78
2021/08/03 07:12:36;;;;;;;2.05;0.00;;;15.80;99.90;;;;;;5078456;28;20027;-80
2021/08/03 07:15:03;;;;;;;3.30;0.17;;;15.80;99.90;;;;;;5078100;28;20023;-77
2021/08/03 07:17:30;;;;;;;2.08;0.00;;;15.90;99.90;;;;;;5095468;28;20477;-78
2021/08/03 07:20:01;;;;;;;0.63;0.00;;;15.90;99.90;;;;;;5095393;28;20073;-78
2021/08/03 07:22:27;;;;;;;3.10;0.00;;;15.90;99.90;;;;;;5095055;28;20028;-77
2021/08/03 07:24:53;;;;;;;1.30;0.20;;;15.90;99.90;;;;;;5095224;28;20016;-76
2021/08/03 07:27:18;;;;;;;1.40;0.00;;;16.00;99.90;;;;;;5095052;28;20097;-78
2021/08/03 07:29:44;;;;;;;1.52;0.68;;;16.10;99.90;;;;;;5095002;28;20028;-78
2021/08/03 07:32:11;;;;;;;0.63;0.00;;;16.30;99.90;;;;;;5095540;28;20129;-78
2021/08/03 07:34:38;;;;;;;0.77;0.00;;;16.50;99.90;;;;;;5094152;28;20027;-77
2021/08/03 07:37:06;;;;;;;1.17;0.00;;;16.70;99.90;;;;;;5095250;28;20103;-78
2021/08/03 07:39:33;;;;;;;0.35;0.00;;;16.80;99.90;;;;;;5095860;28;20016;-78
2021/08/03 07:41:58;;;;;;;0.10;0.00;;;17.00;99.90;;;;;;5095441;28;20028;-79
2021/08/03 07:44:24;;;;;;;1.10;0.00;;;17.20;99.90;;;;;;5076989;28;20386;-78
2021/08/03 07:46:50;;;;;;;0.10;0.00;;;17.40;99.90;;;;;;5077046;28;20024;-78
2021/08/03 07:49:18;;;;;;;2.83;0.00;;;17.60;99.90;;;;;;5077116;28;20488;-78
2021/08/03 07:51:48;;;;;;;1.55;0.00;;;17.70;99.90;;;;;;5076951;28;20165;-78
2021/08/03 07:54:14;;;;;;;0.00;0.00;;;17.90;99.90;;;;;;5077377;28;20545;-78
2021/08/03 07:56:40;;;;;;;0.55;0.00;;;18.10;99.90;;;;;;5095037;28;20028;-78
2021/08/03 07:59:06;;;;;;;0.68;0.00;;;18.20;99.90;;;;;;5076520;28;20039;-76
2021/08/03 08:01:33;;;;;;;0.55;0.00;;;18.30;99.90;;;;;;5076512;28;20099;-78
2021/08/03 08:03:59;;;;;;;0.05;0.00;;;18.40;99.90;;;;;;5094384;28;20028;-78
2021/08/03 08:06:24;;;;;;;0.73;0.00;;;18.60;99.90;;;;;;5094148;28;20016;-77
2021/08/03 08:08:50;;;;;;;1.00;0.00;;;18.80;99.90;;;;;;5094405;28;20042;-77
2021/08/03 08:11:15;;;;;;;3.05;0.20;;;19.00;99.90;;;;;;5094175;28;20420;-77
2021/08/03 08:13:41;;;;;;;0.70;0.00;;;19.10;99.90;;;;;;5076535;28;20020;-78
2021/08/03 08:16:06;;;;;;;2.63;0.43;;;19.20;99.90;;;;;;5093977;28;20024;-76
2021/08/03 08:18:32;;;;;;;0.00;0.00;;;19.10;99.90;;;;;;5075838;28;20019;-76
2021/08/03 08:20:58;;;;;;;0.20;0.00;;;19.00;99.90;;;;;;5107418;22;20040;-79
2021/08/03 08:23:24;;;;;;;0.10;0.00;;;19.00;99.90;;;;;;5095047;28;20436;-79
2021/08/03 08:25:49;;;;;;;0.85;0.00;;;18.90;99.90;;;;;;5076997;28;20088;-80
2021/08/03 08:28:15;;;;;;;0.57;0.00;;;19.00;99.90;;;;;;5076548;28;20118;-78
2021/08/03 08:30:41;;;;;;;0.20;0.00;;;19.00;99.90;;;;;;5094267;28;20452;-77
2021/08/03 08:33:07;;;;;;;0.60;0.00;;;19.30;99.90;;;;;;5094422;28;20024;-78
2021/08/03 08:35:33;;;;;;;0.15;0.00;;;19.00;99.90;;;;;;5094515;28;20016;-78
2021/08/03 08:37:59;;;;;;;0.80;0.00;;;19.00;99.90;;;;;;5095845;28;20066;-78
2021/08/03 08:40:24;;;;;;;1.27;0.00;;;18.90;99.90;;;;;;5075957;28;20385;-80
2021/08/03 08:42:50;;;;;;;1.13;0.00;;;18.80;99.90;;;;;;5093868;28;20050;-79
2021/08/03 08:45:17;;;;;;;3.10;0.55;;;18.80;99.90;;;;;;5093441;28;20043;-78
2021/08/03 08:47:47;;;;;;;1.30;0.00;;;18.70;99.90;;;;;;5094117;28;20013;-76
2021/08/03 08:50:15;;;;;;;0.00;0.00;;;18.60;99.90;;;;;;5075453;28;20077;-78
2021/08/03 08:52:41;;;;;;;2.20;0.00;;;18.60;99.90;;;;;;5075628;28;20027;-77
2021/08/03 08:55:09;;;;;;;0.00;0.00;;;18.40;99.90;;;;;;5093666;28;20020;-78
2021/08/03 08:57:36;;;;;;;1.15;0.08;;;18.30;99.90;;;;;;5075768;28;20027;-75
2021/08/03 09:00:03;;;;;;;0.45;0.00;;;18.30;99.90;;;;;;5093672;28;20016;-78
2021/08/03 09:02:53;;;;;;;1.60;0.00;;;18.30;99.90;;;;;;5093596;28;20028;-78
2021/08/03 09:05:33;;;;;;;3.20;0.30;;;18.20;99.90;;;;;;5093405;28;20039;-80
2021/08/03 09:08:00;;;;;;;0.30;0.00;;;18.30;99.90;;;;;;5094380;28;20448;-80
2021/08/03 09:10:48;;;;;;;0.00;0.00;;;18.30;99.90;;;;;;5075615;28;20386;-80
2021/08/03 09:13:21;;;;;;;0.98;0.13;;;18.30;99.90;;;;;;5094675;28;20020;-80
2021/08/03 09:15:57;;;;;;;0.40;0.10;;;18.40;99.90;;;;;;5093639;28;20077;-77
2021/08/03 09:18:35;;;;;;;0.60;0.00;;;18.50;99.90;;;;;;5093374;28;20099;-78
2021/08/03 09:21:01;;;;;;;1.35;0.10;;;18.70;99.90;;;;;;5075258;28;20493;-76
2021/08/03 09:23:46;;;;;;;0.85;0.10;;;18.90;99.90;;;;;;5075241;28;20027;-77
2021/08/03 09:26:13;;;;;;;0.10;0.00;;;19.20;99.90;;;;;;5093637;28;20024;-80
2021/08/03 09:28:55;;;;;;;0.10;0.00;;;19.40;99.90;;;;;;5075684;28;20081;-78
2021/08/03 09:31:21;;;;;;;2.75;0.25;;;19.60;99.90;;;;;;5093045;28;20070;-77
2021/08/03 09:33:47;;;;;;;0.70;0.00;;;19.70;99.90;;;;;;5093696;28;20062;-78
2021/08/03 09:36:13;;;;;;;0.82;0.10;;;19.80;99.90;;;;;;5093132;28;20024;-77
2021/08/03 09:38:38;;;;;;;1.10;0.00;;;19.80;99.90;;;;;;5094075;28;20024;-77
2021/08/03 09:41:10;;;;;;;5.05;0.00;;;19.70;99.90;;;;;;5092999;28;20024;-77
2021/08/03 09:43:36;;;;;;;0.17;0.00;;;19.70;99.90;;;;;;5075092;28;20088;-77
2021/08/03 09:46:01;;;;;;;0.40;0.00;;;19.70;99.90;;;;;;5093155;28;20025;-77
2021/08/03 09:48:29;;;;;;;3.20;0.00;;;19.90;99.90;;;;;;5093590;28;20024;-78
2021/08/03 09:50:59;;;;;;;1.23;0.00;;;20.00;99.90;;;;;;5092962;28;20393;-78
2021/08/03 09:53:50;;;;;;;1.25;0.00;;;20.10;99.90;;;;;;5093309;28;20040;-79
2021/08/03 09:56:28;;;;;;;3.22;0.20;;;20.20;99.90;;;;;;5075645;28;20436;-77
2021/08/03 09:59:02;;;;;;;0.83;0.00;;;20.20;99.90;;;;;;5097023;28;20024;-77
2021/08/03 10:01:34;;;;;;;1.25;0.55;;;20.10;99.90;;;;;;5096555;28;20054;-77
2021/08/03 10:04:09;;;;;;;2.10;0.00;;;20.10;99.90;;;;;;5078402;28;20019;-77
2021/08/03 10:06:36;;;;;;;0.50;0.10;;;19.90;99.90;;;;;;5096653;28;20020;-77
2021/08/03 10:09:03;;;;;;;0.43;0.10;;;19.70;99.90;;;;;;5078282;28;20076;-77
2021/08/03 10:11:29;;;;;;;1.83;0.10;;;19.60;99.90;;;;;;5096509;28;20034;-78
2021/08/03 10:13:56;;;;;;;1.48;0.20;;;19.50;99.90;;;;;;5096971;28;20384;-78
2021/08/03 10:16:23;;;;;;;1.48;0.20;;;19.40;99.90;;;;;;5096613;28;20385;-77
2021/08/03 10:18:54;;;;;;;1.40;0.30;;;19.20;99.90;;;;;;5096365;28;20094;-80
2021/08/03 10:21:31;;;;;;;1.20;0.15;;;19.10;99.90;;;;;;5096786;28;20036;-79
2021/08/03 10:24:02;;;;;;;2.42;0.10;;;19.00;99.90;;;;;;5078294;28;20111;-76
2021/08/03 10:26:28;;;;;;;1.55;0.25;;;19.00;99.90;;;;;;5096108;28;20508;-77
2021/08/03 10:29:20;;;;;;;1.27;0.00;;;19.00;99.90;;;;;;5096109;28;20020;-77
2021/08/03 10:31:45;;;;;;;0.40;0.10;;;19.00;99.90;;;;;;5095830;28;20020;-76
2021/08/03 10:34:43;;;;;;;0.40;0.00;;;19.20;99.90;;;;;;5096206;28;20032;-76
2021/08/03 10:37:12;;;;;;;0.30;0.10;;;19.40;99.90;;;;;;5096085;28;20105;-78
2021/08/03 10:39:57;;;;;;;2.38;0.20;;;19.70;99.90;;;;;;5096618;28;20023;-78
2021/08/03 10:42:25;;;;;;;2.83;0.10;;;20.20;99.90;;;;;;5077669;28;20103;-76
2021/08/03 10:44:57;;;;;;;0.50;0.00;;;20.60;99.90;;;;;;5095925;28;20093;-79
2021/08/03 10:47:32;;;;;;;2.40;0.15;;;21.10;99.90;;;;;;5096409;28;20091;-79
2021/08/03 10:50:11;;;;;;;1.42;0.43;;;21.30;99.90;;;;;;5077378;28;20027;-75
2021/08/03 10:52:49;;;;;;;0.77;0.00;;;21.30;99.90;;;;;;5078232;28;20475;-80
2021/08/03 10:55:36;;;;;;;2.70;0.00;;;21.00;99.90;;;;;;5097054;28;20024;-80
2021/08/03 10:58:11;;;;;;;1.95;0.10;;;20.70;99.90;;;;;;5096299;28;20277;-80
2021/08/03 11:00:52;;;;;;;0.68;0.03;;;20.40;99.90;;;;;;5096309;28;20073;-79
2021/08/03 11:03:35;;;;;;;3.33;0.20;;;20.10;99.90;;;;;;5096158;28;20130;-80
2021/08/03 11:06:03;;;;;;;1.40;0.15;;;19.90;99.90;;;;;;5095964;28;20052;-80
2021/08/03 11:08:43;;;;;;;0.88;0.00;;;19.70;99.90;;;;;;5095871;28;20032;-80
2021/08/03 11:11:23;;;;;;;0.85;0.00;;;19.70;99.90;;;;;;5077531;28;20489;-80
2021/08/03 11:13:52;;;;;;;0.82;0.00;;;19.70;99.90;;;;;;5096605;28;20032;-80
2021/08/03 11:16:20;;;;;;;2.38;0.30;;;19.80;99.90;;;;;;5078441;28;20024;-80
2021/08/03 11:18:51;;;;;;;0.55;0.10;;;19.80;99.90;;;;;;5096275;28;20074;-80
2021/08/03 11:21:19;;;;;;;3.70;0.10;;;19.80;99.90;;;;;;5096758;28;20024;-80
2021/08/03 11:23:56;;;;;;;2.53;0.30;;;19.80;99.90;;;;;;5078495;28;20021;-80
2021/08/03 11:26:31;;;;;;;2.30;0.30;;;19.80;99.90;;;;;;5078123;28;20129;-80
2021/08/03 11:28:58;;;;;;;1.75;0.00;;;19.70;99.90;;;;;;5096486;28;20020;-80
2021/08/03 11:31:44;;;;;;;2.97;0.40;;;19.70;99.90;;;;;;5095313;28;20114;-80
2021/08/03 11:34:12;;;;;;;1.00;0.10;;;19.40;99.90;;;;;;5095310;28;20027;-76
2021/08/03 11:36:51;;;;;;;1.83;0.20;;;19.20;99.90;;;;;;5094781;28;20035;-76
2021/08/03 11:39:24;;;;;;;1.50;0.00;;;19.00;99.90;;;;;;5095745;28;20021;-80
2021/08/03 11:41:51;;;;;;;1.75;0.30;;;18.70;99.90;;;;;;5095971;28;20024;-80
2021/08/03 11:44:18;;;;;;;0.88;0.20;;;18.60;99.90;;;;;;5077856;28;20024;-80
2021/08/03 11:46:45;;;;;;;8.63;0.73;;;18.40;99.90;;;;;;5077797;28;20027;-78
2021/08/03 11:49:11;;;;;;;1.50;0.10;;;18.30;99.90;;;;;;5076277;28;20027;-77
2021/08/03 11:51:44;;;;;;;1.50;0.10;;;18.20;99.90;;;;;;5076999;28;20028;-77
2021/08/03 11:54:15;;;;;;;3.78;0.47;;;18.10;99.90;;;;;;5076360;28;20101;-79
2021/08/03 11:56:41;;;;;;;6.57;0.52;;;18.00;99.90;;;;;;5076775;28;20473;-79
2021/08/03 11:59:07;;;;;;;2.63;0.30;;;17.80;99.90;;;;;;5076395;28;20026;-79
2021/08/03 12:01:50;;;;;;;2.90;0.35;;;17.70;99.90;;;;;;5094792;28;20153;-77
2021/08/03 12:04:17;;;;;;;0.73;0.00;;;17.50;99.90;;;;;;5076488;28;20026;-77
2021/08/03 12:06:44;;;;;;;5.20;0.80;;;17.30;99.90;;;;;;5094629;28;20512;-77
2021/08/03 12:09:10;;;;;;;3.03;0.32;;;17.20;99.90;;;;;;5094142;28;20367;-77
2021/08/03 12:11:36;;;;;;;12.43;0.50;;;17.20;99.90;;;;;;5093920;28;20028;-76
2021/08/03 12:14:12;;;;;;;1.48;0.52;;;17.10;99.90;;;;;;5075860;28;20013;-76
2021/08/03 12:16:42;;;;;;;3.13;0.88;;;17.00;99.90;;;;;;5094274;28;20444;-77
2021/08/03 12:19:27;;;;;;;4.57;0.80;;;16.90;99.90;;;;;;5093740;28;20024;-80
2021/08/03 12:21:52;;;;;;;2.65;1.33;;;16.90;99.90;;;;;;5094386;28;20059;-78
2021/08/03 12:24:18;;;;;;;6.70;2.03;;;16.90;99.90;;;;;;5094089;28;20016;-78
2021/08/03 12:26:45;;;;;;;4.65;1.10;;;16.90;99.90;;;;;;5094188;28;20024;-76
2021/08/03 12:29:11;;;;;;;3.08;1.67;;;16.90;99.90;;;;;;5093851;28;20024;-78
2021/08/03 12:31:43;;;;;;;6.55;1.85;;;16.90;99.90;;;;;;5075783;28;20020;-77
2021/08/03 12:34:20;;;;;;;4.57;1.98;;;17.00;99.90;;;;;;5093788;28;20540;-77
2021/08/03 12:36:51;;;;;;;4.22;1.95;;;17.00;99.90;;;;;;5075661;28;20024;-77
2021/08/03 12:39:40;;;;;;;2.90;2.03;;;17.10;99.90;;;;;;5075627;28;20024;-77
2021/08/03 12:42:31;;;;;;;5.43;2.65;;;17.10;99.90;;;;;;5075845;28;20024;-77
2021/08/03 12:45:12;;;;;;;5.88;2.28;;;17.20;99.90;;;;;;5075562;28;20474;-77
2021/08/03 12:47:56;;;;;;;8.55;2.75;;;17.20;99.90;;;;;;5075610;28;20389;-80
2021/08/03 12:50:23;;;;;;;7.15;2.90;;;17.20;99.90;;;;;;5093864;28;20024;-79
2021/08/03 12:52:57;;;;;;;6.30;3.00;;;17.20;99.90;;;;;;5093729;28;20103;-80
2021/08/03 12:55:41;;;;;;;9.50;2.80;;;17.20;99.90;;;;;;5075790;28;20103;-80
2021/08/03 12:58:07;;;;;;;6.47;3.10;;;17.30;99.90;;;;;;5093416;28;20028;-76
2021/08/03 13:00:34;;;;;;;10.07;3.10;;;17.40;99.90;;;;;;5075205;28;20381;-76
2021/08/03 13:03:02;;;;;;;8.25;3.20;;;17.50;99.90;;;;;;5075540;28;20031;-80